createdAt,value
2023-01-05T00:02:42.385Z,100992.22
2023-01-05T00:06:46.348Z,100981.09
2023-01-05T00:11:06.473Z,100993.63
2023-01-05T00:15:28.725Z,100996.34
2023-01-05T00:19:50.396Z,100987.47
2023-01-05T00:23:53.419Z,100994.22
2023-01-05T00:27:58.404Z,100983.09
2023-01-05T00:32:02.469Z,101004.88
2023-01-05T00:36:12.211Z,100988.31
2023-01-05T00:40:17.907Z,100991.16
2023-01-05T00:44:20.917Z,101002.50
2023-01-05T00:48:24.079Z,100999.06
2023-01-05T00:52:28.774Z,101006.28
2023-01-05T00:56:31.801Z,100998.72
2023-01-05T01:00:35.060Z,101007.72
2023-01-05T01:04:38.109Z,101005.81
2023-01-05T01:08:42.434Z,101008.78
2023-01-05T01:12:45.284Z,101006.28
2023-01-05T01:16:48.473Z,100999.44
2023-01-05T01:20:51.904Z,101009.25
2023-01-05T01:24:56.307Z,101009.84
2023-01-05T01:28:59.177Z,101024.25
2023-01-05T01:33:02.136Z,101020.50
2023-01-05T01:37:05.122Z,101026.97
2023-01-05T01:41:15.326Z,101035.13
2023-01-05T01:45:21.618Z,101049.34
2023-01-05T01:49:24.585Z,101054.81
2023-01-05T01:53:30.892Z,101047.34
2023-01-05T01:57:36.448Z,101048.41
2023-01-05T02:01:39.548Z,101060.09
2023-01-05T02:05:42.715Z,101064.59
2023-01-05T02:09:46.940Z,101064.81
2023-01-05T02:14:04.566Z,101074.63
2023-01-05T02:18:30.920Z,101070.50
2023-01-05T02:23:14.501Z,101075.13
2023-01-05T02:27:48.663Z,101067.66
2023-01-05T02:31:59.238Z,101079.34
2023-01-05T02:36:11.085Z,101070.97
2023-01-05T02:40:19.934Z,101072.59
2023-01-05T02:44:23.694Z,101082.66
2023-01-05T02:48:33.130Z,101084.94
2023-01-05T02:52:41.506Z,101081.63
2023-01-05T02:56:51.476Z,101075.72
2023-01-05T03:00:59.903Z,101077.22
2023-01-05T03:05:09.367Z,101073.09
2023-01-05T03:09:12.709Z,101084.22
2023-01-05T03:13:33.592Z,101075.44
2023-01-05T03:17:44.254Z,101087.16
2023-01-05T03:22:08.362Z,101081.94
2023-01-05T03:26:33.878Z,101089.50
2023-01-05T03:31:02.990Z,101087.03
2023-01-05T03:35:30.580Z,101093.75
2023-01-05T03:39:38.856Z,101100.00
2023-01-05T03:43:43.885Z,101099.56
2023-01-05T03:47:46.720Z,101095.63
2023-01-05T03:51:49.710Z,101107.81
2023-01-05T03:55:54.195Z,101099.41
2023-01-05T03:59:57.630Z,101104.03
2023-01-05T04:04:01.265Z,101108.16
2023-01-05T04:08:04.785Z,101106.50
2023-01-05T04:12:12.206Z,101111.13
2023-01-05T04:16:19.782Z,101108.16
2023-01-05T04:20:24.851Z,101113.59
2023-01-05T04:24:29.129Z,101117.63
2023-01-05T04:28:33.885Z,101117.28
2023-01-05T04:32:38.247Z,101127.09
2023-01-05T04:36:41.836Z,101131.56
2023-01-05T04:40:51.245Z,101143.34
2023-01-05T04:44:57.071Z,101144.41
2023-01-05T04:49:00.265Z,101147.56
2023-01-05T04:53:03.269Z,101152.19
2023-01-05T04:57:06.604Z,101151.59
2023-01-05T05:01:11.766Z,101158.09
2023-01-05T05:05:17.089Z,101163.38
2023-01-05T05:09:20.322Z,101170.34
2023-01-05T05:13:24.965Z,101163.84
2023-01-05T05:17:30.634Z,101173.41
2023-01-05T05:21:34.427Z,101168.81
2023-01-05T05:25:38.001Z,101180.75
2023-01-05T05:29:41.284Z,101179.75
2023-01-05T05:33:46.011Z,101188.31
2023-01-05T05:37:54.419Z,101196.91
2023-01-05T05:41:59.185Z,101193.56
2023-01-05T05:46:02.217Z,101197.34
2023-01-05T05:50:07.714Z,101203.63
2023-01-05T05:54:10.685Z,101207.00
2023-01-05T05:58:13.712Z,101222.72
2023-01-05T06:02:18.135Z,101225.25
2023-01-05T06:06:22.696Z,101225.47
2023-01-05T06:10:25.677Z,101227.59
2023-01-05T06:14:28.881Z,101236.78
2023-01-05T06:18:31.681Z,101237.84
2023-01-05T06:22:36.141Z,101236.19
2023-01-05T06:26:39.226Z,101241.38
2023-01-05T06:30:42.224Z,101253.94
2023-01-05T06:34:45.209Z,101253.53
2023-01-05T06:38:49.905Z,101257.31
2023-01-05T06:42:53.325Z,101265.69
2023-01-05T06:46:56.402Z,101269.00
2023-01-05T06:50:59.337Z,101283.81
2023-01-05T06:55:03.735Z,101284.19
2023-01-05T06:59:06.596Z,101280.19
2023-01-05T07:03:13.389Z,101282.75
2023-01-05T07:07:17.219Z,101286.28
2023-01-05T07:11:21.615Z,101285.63
2023-01-05T07:15:24.768Z,101301.94
2023-01-05T07:19:27.718Z,101308.03
2023-01-05T07:23:31.159Z,101300.94
2023-01-05T07:27:35.704Z,101305.31
2023-01-05T07:31:39.941Z,101305.91
2023-01-05T07:35:43.052Z,101307.34
2023-01-05T07:39:46.972Z,101321.97
2023-01-05T07:43:51.733Z,101327.00
2023-01-05T07:47:55.205Z,101321.09
2023-01-05T07:51:58.387Z,101327.34
2023-01-05T07:56:02.648Z,101337.41
2023-01-05T08:00:08.871Z,101348.03
2023-01-05T08:04:17.606Z,101351.81
2023-01-05T08:08:24.311Z,101347.63
2023-01-05T08:12:28.826Z,101358.47
2023-01-05T08:16:34.518Z,101351.75
2023-01-05T08:20:37.362Z,101354.03
2023-01-05T08:24:40.169Z,101372.25
2023-01-05T08:28:44.377Z,101378.06
2023-01-05T08:32:48.818Z,101381.38
2023-01-05T08:36:52.319Z,101384.91
2023-01-05T08:40:59.550Z,101381.38
2023-01-05T08:45:02.626Z,101386.44
2023-01-05T08:49:09.389Z,101390.59
2023-01-05T08:53:12.370Z,101398.97
2023-01-05T08:57:15.204Z,101404.63
2023-01-05T09:01:20.951Z,101413.41
2023-01-05T09:05:25.329Z,101423.66
2023-01-05T09:09:28.233Z,101423.91
2023-01-05T09:13:31.201Z,101423.06
2023-01-05T09:17:35.968Z,101433.94
2023-01-05T09:21:40.516Z,101436.19
2023-01-05T09:25:43.541Z,101437.25
2023-01-05T09:29:46.555Z,101459.63
2023-01-05T09:33:49.758Z,101467.53
2023-01-05T09:37:54.203Z,101481.38
2023-01-05T09:41:59.927Z,101492.25
2023-01-05T09:46:05.447Z,101491.19
2023-01-05T09:50:18.349Z,101486.97
2023-01-05T09:54:25.333Z,101498.69
2023-01-05T09:58:34.728Z,101502.00
2023-01-05T10:02:47.926Z,101510.94
2023-01-05T10:06:54.727Z,101502.59
2023-01-05T10:11:21.088Z,101520.13
2023-01-05T10:15:24.158Z,101515.13
2023-01-05T10:19:27.405Z,101502.97
2023-01-05T10:23:51.034Z,101502.78
2023-01-05T10:28:07.617Z,101509.69
2023-01-05T10:32:23.737Z,101508.84
2023-01-05T10:41:18.003Z,101525.38
2023-01-05T10:45:23.200Z,101531.88
2023-01-05T10:49:30.549Z,101540.84
2023-01-05T10:53:37.387Z,101540.84
2023-01-05T10:57:42.284Z,101537.31
2023-01-05T11:01:50.090Z,101535.00
2023-01-05T11:05:53.098Z,101532.41
2023-01-05T11:09:56.216Z,101544.78
2023-01-05T11:14:00.234Z,101529.69
2023-01-05T11:18:05.261Z,101545.00
2023-01-05T11:22:29.674Z,101534.72
2023-01-05T11:26:35.519Z,101535.09
2023-01-05T11:30:41.588Z,101544.13
2023-01-05T11:34:47.770Z,101536.31
2023-01-05T11:38:54.726Z,101534.63
2023-01-05T11:42:58.687Z,101544.38
2023-01-05T11:47:01.787Z,101539.78
2023-01-05T11:51:06.500Z,101537.03
2023-01-05T11:55:31.954Z,101543.09
2023-01-05T11:59:38.780Z,101548.75
2023-01-05T12:04:04.089Z,101545.22
2023-01-05T12:08:14.672Z,101554.38
2023-01-05T12:12:35.478Z,101550.00
2023-01-05T12:16:46.909Z,101561.25
2023-01-05T12:20:57.286Z,101557.47
2023-01-05T12:25:12.377Z,101544.03
2023-01-05T12:34:45.037Z,101550.78
2023-01-05T12:39:08.000Z,101551.59
2023-01-05T12:43:18.775Z,101554.31
2023-01-05T12:47:45.706Z,101563.53
2023-01-05T12:51:54.365Z,101564.75
2023-01-05T12:56:00.670Z,101556.22
2023-01-05T13:00:12.215Z,101558.09
2023-01-05T13:04:34.275Z,101555.97
2023-01-05T13:08:45.923Z,101557.66
2023-01-05T13:12:51.621Z,101563.91
2023-01-05T13:17:01.910Z,101566.03
2023-01-05T13:21:12.703Z,101561.00
2023-01-05T13:25:20.293Z,101571.19
2023-01-05T13:29:27.232Z,101574.16
2023-01-05T13:33:48.295Z,101579.97
2023-01-05T13:38:33.188Z,101580.97
2023-01-05T13:43:01.003Z,101587.03
2023-01-05T13:47:27.020Z,101583.84
2023-01-05T13:51:54.788Z,101590.53
2023-01-05T13:56:02.130Z,101597.69
2023-01-05T14:00:12.250Z,101593.31
2023-01-05T14:04:20.769Z,101606.91
2023-01-05T14:08:28.823Z,101601.25
2023-01-05T14:12:49.534Z,101591.66
2023-01-05T14:16:54.564Z,101596.19
2023-01-05T14:20:57.451Z,101590.72
2023-01-05T14:25:36.597Z,101598.28
2023-01-05T14:30:21.144Z,101585.97
2023-01-05T14:34:27.184Z,101590.19
2023-01-05T14:38:30.862Z,101605.69
2023-01-05T14:42:39.680Z,101608.03
2023-01-05T14:46:48.754Z,101603.25
2023-01-05T14:51:09.599Z,101598.25
2023-01-05T14:55:37.818Z,101607.09
2023-01-05T14:59:44.232Z,101602.47
2023-01-05T15:03:52.087Z,101613.59
2023-01-05T15:08:07.989Z,101606.44
2023-01-05T15:12:35.915Z,101605.47
2023-01-05T15:17:00.824Z,101603.00
2023-01-05T15:21:36.779Z,101597.47
2023-01-05T15:26:02.768Z,101601.66
2023-01-05T15:30:25.455Z,101608.56
2023-01-05T15:34:38.167Z,101598.78
2023-01-05T15:38:46.502Z,101602.19
2023-01-05T15:43:02.442Z,101602.84
2023-01-05T15:47:12.248Z,101618.34
2023-01-05T15:51:26.643Z,101613.78
2023-01-05T15:55:31.543Z,101603.13
2023-01-05T15:59:39.892Z,101605.44
2023-01-05T16:03:44.372Z,101605.44
2023-01-05T16:07:54.747Z,101606.50
2023-01-05T16:12:01.231Z,101605.28
2023-01-05T16:16:12.904Z,101606.94
2023-01-05T16:20:21.986Z,101602.97
2023-01-05T16:24:32.992Z,101609.69
2023-01-05T16:28:35.824Z,101610.91
2023-01-05T16:32:41.756Z,101613.00
2023-01-05T16:37:00.398Z,101596.94
2023-01-05T16:41:23.689Z,101603.41
2023-01-05T16:45:29.696Z,101605.47
2023-01-05T16:49:43.590Z,101607.13
2023-01-05T16:53:52.173Z,101600.66
2023-01-05T16:57:57.121Z,101588.75
2023-01-05T17:02:00.002Z,101590.63
2023-01-05T17:06:03.861Z,101586.28
2023-01-05T17:10:08.641Z,101587.28
2023-01-05T17:14:14.249Z,101583.56
2023-01-05T17:18:18.946Z,101588.31
2023-01-05T17:22:21.775Z,101584.56
2023-01-05T17:26:28.480Z,101586.66
2023-01-05T17:30:32.601Z,101595.69
2023-01-05T17:34:36.330Z,101590.47
2023-01-05T17:38:40.738Z,101590.91
2023-01-05T17:42:43.540Z,101594.25
2023-01-05T17:46:49.255Z,101593.44
2023-01-05T17:50:54.212Z,101572.09
2023-01-05T17:54:57.263Z,101569.78
2023-01-05T17:59:00.017Z,101583.97
2023-01-05T18:03:04.373Z,101569.56
2023-01-05T18:11:16.434Z,101564.56
2023-01-05T18:15:20.575Z,101552.44
2023-01-05T18:19:25.161Z,101550.53
2023-01-05T18:23:27.923Z,101556.19
2023-01-05T18:27:35.324Z,101531.97
2023-01-05T18:31:40.188Z,101533.84
2023-01-05T18:35:46.025Z,101543.84
2023-01-05T18:39:48.853Z,101540.94
2023-01-05T18:43:51.937Z,101548.06
2023-01-05T18:47:58.069Z,101537.78
2023-01-05T18:52:02.301Z,101533.19
2023-01-05T18:56:07.153Z,101524.44
2023-01-05T19:00:10.897Z,101514.63
2023-01-05T19:04:15.663Z,101510.84
2023-01-05T19:08:19.864Z,101516.69
2023-01-05T19:12:22.897Z,101508.75
2023-01-05T19:16:27.592Z,101520.03
2023-01-05T19:20:31.603Z,101516.50
2023-01-05T19:24:36.215Z,101512.28
2023-01-05T19:28:41.038Z,101515.41
2023-01-05T19:32:43.832Z,101512.69
2023-01-05T19:36:47.176Z,101501.81
2023-01-05T19:40:51.311Z,101504.94
2023-01-05T19:44:54.014Z,101493.06
2023-01-05T19:48:59.691Z,101494.91
2023-01-05T19:53:03.134Z,101490.94
2023-01-05T19:57:07.368Z,101481.31
2023-01-05T20:01:12.166Z,101474.66
2023-01-05T20:05:15.072Z,101485.06
2023-01-05T20:09:19.823Z,101482.34
2023-01-05T20:13:24.111Z,101483.84
2023-01-05T20:17:27.276Z,101481.97
2023-01-05T20:21:32.232Z,101486.09
2023-01-05T20:25:34.946Z,101486.72
2023-01-05T20:29:40.434Z,101480.63
2023-01-05T20:33:43.178Z,101486.00
2023-01-05T20:37:45.949Z,101484.72
2023-01-05T20:41:50.772Z,101470.72
2023-01-05T20:45:54.891Z,101470.25
2023-01-05T20:49:57.607Z,101468.38
2023-01-05T20:54:02.376Z,101467.34
2023-01-05T20:58:05.263Z,101466.66
2023-01-05T21:02:22.349Z,101463.50
2023-01-05T21:06:27.872Z,101472.28
2023-01-05T21:10:31.066Z,101472.69
2023-01-05T21:14:33.823Z,101468.66
2023-01-05T21:18:38.001Z,101469.28
2023-01-05T21:22:40.782Z,101467.59
2023-01-05T21:26:43.828Z,101463.16
2023-01-05T21:30:46.940Z,101459.41
2023-01-05T21:34:51.097Z,101461.88
2023-01-05T21:39:01.570Z,101462.50
2023-01-05T21:43:05.947Z,101470.22
2023-01-05T21:47:09.083Z,101463.28
2023-01-05T21:51:30.617Z,101463.06
2023-01-05T21:55:50.890Z,101449.63
2023-01-05T21:59:54.104Z,101458.38
2023-01-05T22:03:57.775Z,101451.03
2023-01-05T22:08:02.012Z,101437.44
2023-01-05T22:12:07.144Z,101434.50
2023-01-05T22:16:10.681Z,101423.19
2023-01-05T22:20:14.700Z,101415.84
2023-01-05T22:24:19.224Z,101422.09
2023-01-05T22:28:22.013Z,101420.22
2023-01-05T22:32:24.812Z,101407.44
2023-01-05T22:36:29.266Z,101412.66
2023-01-05T22:40:33.502Z,101406.63
2023-01-05T22:44:36.344Z,101407.44
2023-01-05T22:48:41.149Z,101409.09
2023-01-05T22:52:43.914Z,101409.34
2023-01-05T22:56:48.032Z,101413.47
2023-01-05T23:00:50.808Z,101397.84
2023-01-05T23:04:53.547Z,101399.72
2023-01-05T23:08:57.318Z,101400.56
2023-01-05T23:13:01.446Z,101396.16
2023-01-05T23:17:04.361Z,101402.31
2023-01-05T23:21:14.690Z,101390.59
2023-01-05T23:25:17.650Z,101401.00
2023-01-05T23:29:22.015Z,101383.84
2023-01-05T23:33:26.997Z,101385.75
2023-01-05T23:37:30.476Z,101387.63
2023-01-05T23:41:33.218Z,101378.41
2023-01-05T23:45:37.292Z,101369.88
2023-01-05T23:49:40.036Z,101376.16
2023-01-05T23:53:43.510Z,101366.94
2023-01-05T23:57:46.244Z,101363.81
